GLO1783 SBEG-SBBR
Flight info
| Callsign | GLO1783 |
|---|---|
| Flight time | N/A |
| Altitude | 33000 |
| Route | GIKVI UZ6 PAMEB UL795 MUKSA UM423 UMPEG UZ40 BUPTU UZ98 ELISA |
| Aircraft | B738/M-DGVW/C |
Departure
| Time | N/A |
|---|---|
| Airport | Eduardo Gomes International Airport (SBEG) |
Arrival
| Time | 2026-04-28 04:45 |
|---|---|
| Airport | Presidente Juscelino Kubitschek International Airport (SBBR) |
| Time | Latitude | Longitude | Altitude | Speed | Heading |
|---|---|---|---|---|---|
| 2026-04-28 04:06 | -13.43409 | -51.71224 | 32953 ft | 480 kts | 102° |
| 2026-04-28 04:06 | -13.44150 | -51.67880 | 32950 ft | 480 kts | 102° |
| 2026-04-28 04:06 | -13.45629 | -51.61207 | 32948 ft | 479 kts | 102° |
| 2026-04-28 04:07 | -13.47108 | -51.54526 | 32949 ft | 479 kts | 102° |
| 2026-04-28 04:07 | -13.48585 | -51.47850 | 32945 ft | 479 kts | 102° |
| 2026-04-28 04:08 | -13.50060 | -51.41168 | 32942 ft | 480 kts | 102° |
| 2026-04-28 04:08 | -13.51534 | -51.34485 | 32943 ft | 480 kts | 102° |
| 2026-04-28 04:09 | -13.53072 | -51.27809 | 32947 ft | 480 kts | 108° |
| 2026-04-28 04:09 | -13.55955 | -51.21652 | 32954 ft | 480 kts | 124° |
| 2026-04-28 04:10 | -13.59799 | -51.16025 | 32956 ft | 481 kts | 125° |
| 2026-04-28 04:10 | -13.63666 | -51.10407 | 32957 ft | 481 kts | 125° |
| 2026-04-28 04:11 | -13.67499 | -51.04758 | 32952 ft | 482 kts | 124° |
| 2026-04-28 04:11 | -13.71203 | -50.99248 | 32957 ft | 482 kts | 124° |
| 2026-04-28 04:12 | -13.75013 | -50.93566 | 32953 ft | 482 kts | 124° |
| 2026-04-28 04:12 | -13.78817 | -50.87891 | 32963 ft | 482 kts | 124° |
| 2026-04-28 04:13 | -13.82624 | -50.82210 | 32951 ft | 482 kts | 124° |
| 2026-04-28 04:13 | -13.86429 | -50.76531 | 32954 ft | 482 kts | 124° |
| 2026-04-28 04:14 | -13.90203 | -50.70893 | 32956 ft | 481 kts | 124° |
| 2026-04-28 04:14 | -13.94024 | -50.65181 | 32952 ft | 482 kts | 124° |
| 2026-04-28 04:15 | -13.97799 | -50.59535 | 32951 ft | 482 kts | 124° |
| 2026-04-28 04:16 | -14.03487 | -50.51020 | 32953 ft | 482 kts | 124° |
| 2026-04-28 04:16 | -14.07284 | -50.45330 | 32959 ft | 482 kts | 124° |
| 2026-04-28 04:17 | -14.11082 | -50.39636 | 32952 ft | 482 kts | 124° |
| 2026-04-28 04:17 | -14.14886 | -50.33929 | 32956 ft | 483 kts | 124° |
| 2026-04-28 04:18 | -14.18684 | -50.28226 | 32952 ft | 483 kts | 124° |
| 2026-04-28 04:18 | -14.22479 | -50.22523 | 32953 ft | 483 kts | 124° |
| 2026-04-28 04:19 | -14.26278 | -50.16811 | 32951 ft | 483 kts | 124° |
| 2026-04-28 04:19 | -14.30074 | -50.11100 | 32951 ft | 483 kts | 124° |
| 2026-04-28 04:20 | -14.33870 | -50.05384 | 32968 ft | 483 kts | 124° |
| 2026-04-28 04:20 | -14.37557 | -49.99829 | 32951 ft | 483 kts | 124° |
| 2026-04-28 04:21 | -14.41349 | -49.94113 | 32955 ft | 482 kts | 124° |
| 2026-04-28 04:21 | -14.45131 | -49.88406 | 32952 ft | 482 kts | 124° |
| 2026-04-28 04:22 | -14.48913 | -49.82695 | 32955 ft | 482 kts | 124° |
| 2026-04-28 04:22 | -14.52692 | -49.76986 | 32952 ft | 482 kts | 124° |
| 2026-04-28 04:23 | -14.56475 | -49.71266 | 32954 ft | 482 kts | 124° |
| 2026-04-28 04:23 | -14.60254 | -49.65547 | 32953 ft | 482 kts | 124° |
| 2026-04-28 04:23 | -14.62120 | -49.62722 | 32933 ft | 470 kts | 124° |
| 2026-04-28 04:24 | -14.63926 | -49.59987 | 32938 ft | 454 kts | 123° |
| 2026-04-28 04:24 | -14.67416 | -49.54698 | 32952 ft | 439 kts | 123° |
| 2026-04-28 04:25 | -14.71005 | -49.49629 | 32962 ft | 434 kts | 129° |
| 2026-04-28 04:25 | -14.74927 | -49.45014 | 32897 ft | 429 kts | 131° |
| 2026-04-28 04:25 | -14.76930 | -49.42680 | 32327 ft | 440 kts | 131° |
| 2026-04-28 04:26 | -14.78997 | -49.40266 | 31842 ft | 458 kts | 131° |
| 2026-04-28 04:26 | -14.81152 | -49.37749 | 31339 ft | 476 kts | 131° |
| 2026-04-28 04:26 | -14.83379 | -49.35146 | 30838 ft | 488 kts | 131° |
| 2026-04-28 04:26 | -14.85633 | -49.32512 | 30333 ft | 491 kts | 131° |
| 2026-04-28 04:27 | -14.87132 | -49.30760 | 29994 ft | 492 kts | 131° |
| 2026-04-28 04:27 | -14.90172 | -49.27207 | 29221 ft | 494 kts | 130° |
| 2026-04-28 04:27 | -14.92452 | -49.24542 | 28652 ft | 495 kts | 130° |
| 2026-04-28 04:27 | -14.93962 | -49.22775 | 28284 ft | 495 kts | 130° |
| 2026-04-28 04:28 | -14.96239 | -49.20112 | 27732 ft | 494 kts | 130° |
| 2026-04-28 04:28 | -14.99285 | -49.16547 | 27009 ft | 493 kts | 130° |
| 2026-04-28 04:28 | -15.00775 | -49.14802 | 26665 ft | 492 kts | 130° |
| 2026-04-28 04:28 | -15.03039 | -49.12150 | 26152 ft | 491 kts | 130° |
| 2026-04-28 04:29 | -15.05297 | -49.09504 | 25639 ft | 490 kts | 130° |
| 2026-04-28 04:29 | -15.07553 | -49.06860 | 25141 ft | 489 kts | 130° |
| 2026-04-28 04:29 | -15.09794 | -49.04233 | 24648 ft | 487 kts | 130° |
| 2026-04-28 04:29 | -15.12750 | -49.00765 | 24011 ft | 482 kts | 130° |
| 2026-04-28 04:30 | -15.14119 | -48.99159 | 23714 ft | 480 kts | 130° |
| 2026-04-28 04:30 | -15.16317 | -48.96579 | 23179 ft | 475 kts | 130° |
| 2026-04-28 04:30 | -15.18488 | -48.94031 | 22615 ft | 470 kts | 130° |
| 2026-04-28 04:30 | -15.20638 | -48.91506 | 22065 ft | 465 kts | 130° |
| 2026-04-28 04:31 | -15.22768 | -48.89003 | 21523 ft | 461 kts | 130° |
| 2026-04-28 04:31 | -15.24883 | -48.86518 | 20994 ft | 457 kts | 130° |
| 2026-04-28 04:31 | -15.26973 | -48.84060 | 20474 ft | 453 kts | 130° |
| 2026-04-28 04:31 | -15.29051 | -48.81616 | 19977 ft | 450 kts | 130° |
| 2026-04-28 04:32 | -15.31108 | -48.79196 | 19469 ft | 447 kts | 130° |
| 2026-04-28 04:32 | -15.33159 | -48.76782 | 18958 ft | 444 kts | 130° |
| 2026-04-28 04:32 | -15.35198 | -48.74381 | 18486 ft | 442 kts | 130° |
| 2026-04-28 04:32 | -15.37218 | -48.72003 | 17973 ft | 439 kts | 130° |
| 2026-04-28 04:33 | -15.39227 | -48.69635 | 17416 ft | 436 kts | 130° |
| 2026-04-28 04:33 | -15.41223 | -48.67283 | 16868 ft | 433 kts | 130° |
| 2026-04-28 04:33 | -15.43206 | -48.64945 | 16330 ft | 429 kts | 130° |
| 2026-04-28 04:33 | -15.45166 | -48.62634 | 15815 ft | 426 kts | 130° |
| 2026-04-28 04:34 | -15.47111 | -48.60340 | 15291 ft | 421 kts | 130° |
| 2026-04-28 04:34 | -15.49035 | -48.58070 | 14796 ft | 417 kts | 131° |
| 2026-04-28 04:34 | -15.50944 | -48.55816 | 14297 ft | 413 kts | 131° |
| 2026-04-28 04:34 | -15.52824 | -48.53596 | 13810 ft | 408 kts | 131° |
| 2026-04-28 04:35 | -15.54636 | -48.51456 | 13263 ft | 401 kts | 131° |
| 2026-04-28 04:35 | -15.56298 | -48.49493 | 12757 ft | 395 kts | 131° |
| 2026-04-28 04:35 | -15.58077 | -48.47391 | 12219 ft | 390 kts | 131° |
| 2026-04-28 04:35 | -15.59852 | -48.45294 | 11687 ft | 385 kts | 131° |
| 2026-04-28 04:36 | -15.61609 | -48.43217 | 11159 ft | 380 kts | 131° |
| 2026-04-28 04:36 | -15.63347 | -48.41162 | 10642 ft | 377 kts | 130° |
| 2026-04-28 04:36 | -15.65084 | -48.39107 | 10132 ft | 373 kts | 130° |
| 2026-04-28 04:36 | -15.66769 | -48.37114 | 9615 ft | 370 kts | 130° |
| 2026-04-28 04:37 | -15.68465 | -48.35106 | 9060 ft | 368 kts | 130° |
| 2026-04-28 04:37 | -15.70164 | -48.33094 | 8513 ft | 365 kts | 130° |
| 2026-04-28 04:37 | -15.71805 | -48.31150 | 7991 ft | 362 kts | 130° |
| 2026-04-28 04:37 | -15.73459 | -48.29190 | 7469 ft | 359 kts | 131° |
| 2026-04-28 04:38 | -15.75117 | -48.27225 | 7070 ft | 353 kts | 130° |
| 2026-04-28 04:38 | -15.76685 | -48.25367 | 6945 ft | 339 kts | 131° |
| 2026-04-28 04:38 | -15.78206 | -48.23565 | 6897 ft | 324 kts | 130° |
| 2026-04-28 04:38 | -15.79659 | -48.21806 | 6901 ft | 309 kts | 129° |
| 2026-04-28 04:39 | -15.80950 | -48.20126 | 6896 ft | 295 kts | 128° |
| 2026-04-28 04:39 | -15.82190 | -48.18487 | 6897 ft | 282 kts | 128° |
| 2026-04-28 04:39 | -15.83389 | -48.16910 | 6912 ft | 268 kts | 128° |
| 2026-04-28 04:39 | -15.84511 | -48.15443 | 6940 ft | 251 kts | 128° |
| 2026-04-28 04:40 | -15.85564 | -48.14071 | 6922 ft | 234 kts | 128° |
| 2026-04-28 04:40 | -15.86528 | -48.12817 | 6926 ft | 216 kts | 128° |
| 2026-04-28 04:40 | -15.87348 | -48.11552 | 6789 ft | 206 kts | 108° |
| 2026-04-28 04:40 | -15.87427 | -48.10147 | 6626 ft | 195 kts | 86° |
| 2026-04-28 04:41 | -15.87365 | -48.08743 | 6371 ft | 192 kts | 88° |
| 2026-04-28 04:41 | -15.87294 | -48.07371 | 6136 ft | 183 kts | 86° |
| 2026-04-28 04:41 | -15.87217 | -48.06118 | 5955 ft | 166 kts | 86° |
| 2026-04-28 04:41 | -15.87143 | -48.04983 | 5723 ft | 157 kts | 86° |
| 2026-04-28 04:42 | -15.87070 | -48.03854 | 5529 ft | 156 kts | 86° |
| 2026-04-28 04:42 | -15.86998 | -48.02725 | 5330 ft | 156 kts | 86° |
| 2026-04-28 04:42 | -15.86925 | -48.01606 | 5137 ft | 155 kts | 86° |
| 2026-04-28 04:42 | -15.86852 | -48.00479 | 4961 ft | 153 kts | 86° |
| 2026-04-28 04:43 | -15.86786 | -47.99456 | 4774 ft | 152 kts | 86° |
| 2026-04-28 04:43 | -15.86716 | -47.98355 | 4574 ft | 153 kts | 86° |
| 2026-04-28 04:43 | -15.86645 | -47.97251 | 4370 ft | 153 kts | 86° |
| 2026-04-28 04:43 | -15.86575 | -47.96161 | 4202 ft | 150 kts | 86° |
| 2026-04-28 04:44 | -15.86503 | -47.95083 | 4005 ft | 146 kts | 86° |
| 2026-04-28 04:44 | -15.86426 | -47.94017 | 3806 ft | 150 kts | 86° |
| 2026-04-28 04:44 | -15.86366 | -47.92930 | 3567 ft | 150 kts | 87° |
| 2026-04-28 04:44 | -15.86300 | -47.91870 | 3472 ft | 142 kts | 85° |
| 2026-04-28 04:45 | -15.86253 | -47.91097 | 3474 ft | 54 kts | 86° |
| 2026-04-28 04:45 | -15.86254 | -47.90859 | 3475 ft | 18 kts | 119° |
| 2026-04-28 04:45 | -15.86333 | -47.90759 | 3473 ft | 20 kts | 131° |
| 2026-04-28 04:45 | -15.86405 | -47.90709 | 3471 ft | 8 kts | 189° |
| 2026-04-28 04:46 | -15.86425 | -47.90771 | 3471 ft | 11 kts | 265° |
| 2026-04-28 04:46 | -15.86430 | -47.90867 | 3471 ft | 17 kts | 266° |
| 2026-04-28 04:46 | -15.86440 | -47.91023 | 3470 ft | 26 kts | 266° |
| 2026-04-28 04:46 | -15.86455 | -47.91230 | 3470 ft | 29 kts | 266° |
| 2026-04-28 04:47 | -15.86467 | -47.91428 | 3470 ft | 27 kts | 266° |
| 2026-04-28 04:47 | -15.86478 | -47.91603 | 3469 ft | 18 kts | 264° |
| 2026-04-28 04:47 | -15.86488 | -47.91730 | 3470 ft | 17 kts | 266° |
| 2026-04-28 04:47 | -15.86530 | -47.91814 | 3470 ft | 12 kts | 188° |
| 2026-04-28 04:48 | -15.86587 | -47.91812 | 3469 ft | 7 kts | 186° |
| 2026-04-28 04:48 | -15.86615 | -47.91850 | 3469 ft | 7 kts | 260° |
| 2026-04-28 04:48 | -15.86640 | -47.91891 | 3469 ft | 7 kts | 203° |
| 2026-04-28 04:48 | -15.86688 | -47.91893 | 3469 ft | 7 kts | 175° |
| 2026-04-28 04:49 | -15.86711 | -47.91891 | 3467 ft | 1 kts | 175° |
| 2026-04-28 04:49 | -15.86713 | -47.91891 | 3468 ft | 0 kts | 175° |